createdAt,value
2018-09-21T00:02:23.843Z,68.70
2018-09-21T00:04:52.751Z,68.60
2018-09-21T00:07:24.750Z,68.30
2018-09-21T00:09:53.550Z,69.10
2018-09-21T00:12:22.350Z,68.50
2018-09-21T00:14:54.921Z,68.40
2018-09-21T00:17:24.291Z,68.50
2018-09-21T00:19:53.077Z,68.50
2018-09-21T00:22:21.832Z,68.30
2018-09-21T00:24:50.644Z,68.30
2018-09-21T00:27:22.118Z,68.40
2018-09-21T00:29:50.950Z,68.50
2018-09-21T00:34:56.933Z,68.20
2018-09-21T00:37:31.009Z,68.10
2018-09-21T00:39:59.703Z,68.00
2018-09-21T00:42:29.557Z,68.00
2018-09-21T00:44:58.377Z,67.90
2018-09-21T00:47:28.313Z,67.90
2018-09-21T00:49:59.973Z,67.90
2018-09-21T00:52:36.936Z,67.60
2018-09-21T01:00:11.754Z,67.50
2018-09-21T01:02:40.947Z,67.70
2018-09-21T01:05:09.685Z,68.40
2018-09-21T01:07:38.475Z,67.70
2018-09-21T01:10:07.204Z,67.60
2018-09-21T01:12:44.019Z,67.70
2018-09-21T01:15:13.872Z,67.60
2018-09-21T01:17:42.734Z,67.70
2018-09-21T01:20:11.535Z,67.60
2018-09-21T01:22:42.039Z,67.60
2018-09-21T01:25:13.363Z,67.60
2018-09-21T01:27:42.730Z,67.40
2018-09-21T01:30:11.433Z,67.40
2018-09-21T01:32:40.340Z,67.20
2018-09-21T01:35:10.580Z,67.20
2018-09-21T01:37:39.324Z,67.40
2018-09-21T01:40:08.116Z,67.40
2018-09-21T01:42:37.645Z,67.30
2018-09-21T01:50:11.899Z,67.00
2018-09-21T01:52:46.839Z,67.60
2018-09-21T01:55:16.548Z,67.60
2018-09-21T01:57:52.542Z,67.40
2018-09-21T02:00:21.971Z,67.50
2018-09-21T02:02:50.670Z,67.40
2018-09-21T02:05:19.470Z,67.40
2018-09-21T02:07:59.841Z,67.30
2018-09-21T02:10:28.751Z,67.40
2018-09-21T02:12:58.055Z,67.40
2018-09-21T02:15:26.889Z,67.30
2018-09-21T02:17:56.453Z,67.30
2018-09-21T02:20:25.243Z,67.40
2018-09-21T02:22:53.981Z,67.50
2018-09-21T02:25:28.151Z,67.30
2018-09-21T02:28:03.616Z,67.30
2018-09-21T02:33:10.371Z,67.40
2018-09-21T02:35:40.386Z,67.30
2018-09-21T02:38:12.382Z,67.20
2018-09-21T02:40:50.654Z,67.30
2018-09-21T02:43:19.479Z,67.40
2018-09-21T02:45:48.266Z,67.40
2018-09-21T02:48:17.122Z,67.40
2018-09-21T02:50:47.842Z,67.10
2018-09-21T02:53:20.472Z,67.30
2018-09-21T02:55:49.330Z,67.30
2018-09-21T02:58:20.867Z,67.40
2018-09-21T03:00:50.773Z,67.50
2018-09-21T03:03:19.308Z,67.50
2018-09-21T03:05:48.866Z,67.60
2018-09-21T03:08:17.625Z,67.50
2018-09-21T03:10:47.864Z,67.60
2018-09-21T03:13:23.506Z,67.50
2018-09-21T03:15:53.610Z,67.60
2018-09-21T03:18:22.329Z,67.80
2018-09-21T03:20:52.566Z,67.90
2018-09-21T03:23:24.920Z,67.90
2018-09-21T03:25:55.274Z,67.90
2018-09-21T03:28:25.280Z,67.70
2018-09-21T03:30:55.431Z,67.80
2018-09-21T03:33:26.380Z,67.90
2018-09-21T03:35:55.177Z,68.10
2018-09-21T03:38:42.185Z,68.20
2018-09-21T03:41:11.093Z,68.10
2018-09-21T03:43:41.432Z,68.30
2018-09-21T03:46:15.709Z,69.00
2018-09-21T03:48:44.403Z,68.30
2018-09-21T03:51:15.030Z,68.20
2018-09-21T03:53:49.861Z,68.20
2018-09-21T03:56:18.595Z,67.80
2018-09-21T03:58:49.054Z,67.70
2018-09-21T04:01:22.826Z,67.90
2018-09-21T04:03:55.836Z,68.00
2018-09-21T04:06:24.722Z,68.30
2018-09-21T04:08:53.461Z,68.30
2018-09-21T04:11:23.332Z,68.30
2018-09-21T04:13:52.188Z,68.30
2018-09-21T04:16:21.017Z,68.30
2018-09-21T04:18:51.007Z,68.40
2018-09-21T04:21:30.581Z,68.20
2018-09-21T04:23:59.371Z,68.30
2018-09-21T04:26:28.042Z,68.50
2018-09-21T04:29:00.509Z,68.60
2018-09-21T04:31:34.646Z,68.60
2018-09-21T04:34:03.417Z,68.80
2018-09-21T04:36:35.604Z,68.80
2018-09-21T04:39:08.320Z,68.70
2018-09-21T04:41:37.293Z,68.60
2018-09-21T04:44:06.084Z,68.70
2018-09-21T04:46:34.859Z,68.80
2018-09-21T04:49:14.994Z,68.90
2018-09-21T04:51:45.954Z,69.00
2018-09-21T04:54:15.007Z,69.10
2018-09-21T04:56:43.774Z,69.20
2018-09-21T04:59:14.367Z,68.90
2018-09-21T05:01:43.273Z,68.80
2018-09-21T05:04:11.989Z,68.80
2018-09-21T05:06:40.810Z,68.70
2018-09-21T05:09:11.086Z,68.70
2018-09-21T05:11:39.946Z,69.00
2018-09-21T05:14:08.743Z,69.00
2018-09-21T05:16:37.535Z,69.00
2018-09-21T05:19:06.302Z,69.00
2018-09-21T05:21:35.083Z,68.90
2018-09-21T05:24:08.682Z,69.00
2018-09-21T05:26:37.548Z,68.80
2018-09-21T05:29:06.886Z,68.90
2018-09-21T05:31:36.794Z,69.00
2018-09-21T05:34:07.087Z,68.60
2018-09-21T05:36:39.631Z,68.40
2018-09-21T05:42:02.667Z,68.30
2018-09-21T05:44:31.388Z,67.90
2018-09-21T05:47:00.148Z,67.90
2018-09-21T05:49:31.212Z,67.70
2018-09-21T05:51:59.905Z,67.40
2018-09-21T05:54:28.638Z,67.10
2018-09-21T05:56:57.828Z,66.90
2018-09-21T05:59:26.572Z,66.80
2018-09-21T06:01:56.240Z,66.40
2018-09-21T06:04:25.046Z,66.10
2018-09-21T06:06:54.522Z,65.70
2018-09-21T06:09:23.233Z,65.50
2018-09-21T06:11:55.134Z,65.60
2018-09-21T06:14:24.467Z,65.10
2018-09-21T06:16:53.225Z,65.10
2018-09-21T06:19:22.088Z,64.70
2018-09-21T06:21:53.497Z,64.70
2018-09-21T06:24:31.663Z,64.80
2018-09-21T06:27:01.642Z,64.70
2018-09-21T06:29:37.197Z,64.20
2018-09-21T06:32:06.028Z,64.40
2018-09-21T06:34:36.092Z,64.30
2018-09-21T06:37:05.681Z,63.60
2018-09-21T06:39:34.404Z,63.60
2018-09-21T06:42:07.386Z,63.40
2018-09-21T06:47:29.392Z,63.50
2018-09-21T06:49:59.331Z,63.20
2018-09-21T06:58:16.533Z,62.90
2018-09-21T07:00:45.887Z,62.80
2018-09-21T07:03:15.300Z,62.60
2018-09-21T07:05:44.058Z,62.10
2018-09-21T07:08:12.844Z,62.30
2018-09-21T07:10:43.986Z,62.20
2018-09-21T07:13:13.371Z,61.80
2018-09-21T07:15:42.334Z,62.30
2018-09-21T07:18:11.112Z,63.60
2018-09-21T07:20:41.572Z,70.90
2018-09-21T07:23:10.451Z,82.20
2018-09-21T07:25:39.391Z,99.90
2018-09-21T07:28:08.136Z,99.90
2018-09-21T07:30:41.778Z,99.90
2018-09-21T07:33:12.621Z,99.90
2018-09-21T07:35:43.251Z,99.90
2018-09-21T07:38:11.977Z,99.90
2018-09-21T07:40:44.466Z,99.90
2018-09-21T07:43:13.166Z,99.90
2018-09-21T07:45:42.667Z,99.90
2018-09-21T07:48:12.890Z,99.90
2018-09-21T07:50:41.956Z,99.90
2018-09-21T07:53:15.062Z,99.90
2018-09-21T07:55:45.453Z,99.90
2018-09-21T07:58:15.349Z,99.90
2018-09-21T08:00:44.135Z,99.90
2018-09-21T08:03:13.715Z,99.90
2018-09-21T08:05:43.245Z,99.90
2018-09-21T08:08:16.918Z,99.90
2018-09-21T08:10:46.338Z,99.90
2018-09-21T08:13:15.825Z,99.90
2018-09-21T08:15:47.195Z,99.90
2018-09-21T08:18:19.502Z,99.90
2018-09-21T08:20:48.262Z,99.90
2018-09-21T08:23:17.058Z,99.90
2018-09-21T08:25:48.990Z,99.90
2018-09-21T08:28:17.726Z,99.90
2018-09-21T08:30:48.257Z,99.90
2018-09-21T08:33:18.752Z,99.90
2018-09-21T08:35:48.644Z,99.90
2018-09-21T08:38:17.492Z,99.90
2018-09-21T08:43:26.254Z,99.90
2018-09-21T08:45:56.068Z,99.90
2018-09-21T08:48:25.495Z,99.90
2018-09-21T08:50:54.286Z,99.90
2018-09-21T08:53:23.072Z,99.90
2018-09-21T08:55:53.324Z,99.90
2018-09-21T08:58:22.440Z,99.90
2018-09-21T09:00:51.188Z,99.90
2018-09-21T09:03:19.936Z,99.90
2018-09-21T09:05:58.153Z,99.90
2018-09-21T09:08:28.614Z,99.90
2018-09-21T09:10:58.456Z,99.90
2018-09-21T09:13:27.169Z,99.90
2018-09-21T09:15:57.341Z,99.90
2018-09-21T09:18:26.113Z,99.90
2018-09-21T09:20:56.330Z,99.90
2018-09-21T09:23:25.039Z,99.90
2018-09-21T09:25:53.790Z,99.90
2018-09-21T09:28:22.561Z,99.90
2018-09-21T09:30:51.418Z,99.90
2018-09-21T09:33:20.243Z,99.90
2018-09-21T09:35:49.078Z,99.90
2018-09-21T09:38:19.516Z,99.90
2018-09-21T09:40:48.453Z,99.90
2018-09-21T09:43:21.133Z,99.90
2018-09-21T09:45:49.850Z,99.90
2018-09-21T09:48:22.777Z,99.90
2018-09-21T09:50:52.867Z,99.90
2018-09-21T09:53:21.686Z,99.90
2018-09-21T09:55:51.558Z,99.90
2018-09-21T09:58:20.367Z,99.90
2018-09-21T10:00:52.631Z,99.90
2018-09-21T10:03:22.694Z,99.90
2018-09-21T10:05:51.440Z,99.90
2018-09-21T10:08:20.856Z,99.90
2018-09-21T10:10:50.644Z,99.90
2018-09-21T10:13:20.218Z,99.90
2018-09-21T10:15:49.773Z,99.90
2018-09-21T10:18:19.216Z,99.90
2018-09-21T10:20:49.072Z,99.90
2018-09-21T10:23:17.865Z,99.90
2018-09-21T10:25:46.597Z,99.90
2018-09-21T10:28:18.761Z,99.90
2018-09-21T10:30:47.387Z,99.90
2018-09-21T10:33:22.507Z,99.90
2018-09-21T10:35:51.174Z,99.90
2018-09-21T10:38:19.999Z,99.90
2018-09-21T10:40:48.719Z,99.90
2018-09-21T10:43:17.547Z,99.90
2018-09-21T10:45:49.866Z,99.90
2018-09-21T10:48:19.685Z,99.90
2018-09-21T10:50:50.098Z,99.90
2018-09-21T10:53:21.893Z,99.90
2018-09-21T10:55:50.631Z,99.90
2018-09-21T10:58:20.339Z,99.90
2018-09-21T11:00:49.126Z,99.90
2018-09-21T11:03:17.884Z,99.90
2018-09-21T11:05:46.930Z,99.90
2018-09-21T11:08:15.858Z,99.90
2018-09-21T11:10:44.592Z,99.90
2018-09-21T11:13:13.391Z,99.90
2018-09-21T11:15:42.227Z,99.90
2018-09-21T11:18:12.511Z,99.90
2018-09-21T11:20:44.802Z,98.00
2018-09-21T11:23:14.859Z,98.40
2018-09-21T11:25:46.365Z,98.30
2018-09-21T11:28:15.793Z,97.30
2018-09-21T11:30:46.762Z,96.20
2018-09-21T11:33:17.408Z,94.70
2018-09-21T11:35:46.270Z,94.50
2018-09-21T11:38:20.948Z,93.60
2018-09-21T11:40:50.440Z,94.10
2018-09-21T11:43:20.124Z,92.70
2018-09-21T11:45:48.902Z,91.30
2018-09-21T11:51:13.125Z,90.80
2018-09-21T11:53:45.221Z,88.40
2018-09-21T11:56:14.027Z,90.00
2018-09-21T11:58:42.848Z,91.00
2018-09-21T12:01:11.767Z,90.40
2018-09-21T12:03:41.562Z,90.90
2018-09-21T12:06:11.573Z,89.40
2018-09-21T12:08:41.511Z,89.70
2018-09-21T12:11:12.097Z,88.30
2018-09-21T12:13:43.309Z,85.10
2018-09-21T12:16:12.372Z,84.90
2018-09-21T12:18:42.189Z,81.40
2018-09-21T12:21:12.300Z,78.00
2018-09-21T12:23:49.391Z,79.60
2018-09-21T12:26:19.451Z,79.90
2018-09-21T12:28:49.536Z,74.20
2018-09-21T12:31:20.081Z,73.50
2018-09-21T12:33:50.704Z,73.30
2018-09-21T12:36:20.416Z,62.30
2018-09-21T12:38:51.493Z,51.00
2018-09-21T12:41:20.882Z,46.20
2018-09-21T12:43:49.735Z,42.20
2018-09-21T12:46:28.967Z,41.00
2018-09-21T12:49:01.501Z,38.40
2018-09-21T12:51:30.544Z,39.70
2018-09-21T12:54:06.236Z,43.20
2018-09-21T12:56:36.256Z,39.30
2018-09-21T12:59:05.563Z,34.40
2018-09-21T13:01:40.024Z,30.20
2018-09-21T13:04:08.864Z,28.70
2018-09-21T13:06:40.374Z,27.60
2018-09-21T13:09:12.060Z,26.10
2018-09-21T13:11:40.834Z,27.40
2018-09-21T13:14:10.654Z,32.20
2018-09-21T13:16:39.405Z,32.70
2018-09-21T13:19:08.211Z,36.40
2018-09-21T13:21:44.646Z,36.40
2018-09-21T13:24:13.417Z,38.90
2018-09-21T13:26:43.453Z,36.90
2018-09-21T13:29:16.340Z,30.50
2018-09-21T13:31:48.090Z,26.90
2018-09-21T13:34:20.742Z,26.20
2018-09-21T13:36:50.633Z,25.20
2018-09-21T13:39:19.803Z,24.80
2018-09-21T13:41:50.698Z,28.80
2018-09-21T13:44:23.095Z,32.40
2018-09-21T13:46:53.214Z,35.80
2018-09-21T13:49:23.168Z,38.30
2018-09-21T13:51:53.168Z,36.80
2018-09-21T13:54:24.606Z,31.20
2018-09-21T13:56:55.687Z,28.80
2018-09-21T13:59:24.720Z,27.10
2018-09-21T14:02:17.121Z,25.10
2018-09-21T14:04:46.507Z,23.80
2018-09-21T14:07:18.675Z,23.10
2018-09-21T14:11:55.947Z,23.10
2018-09-21T14:14:25.863Z,23.20
2018-09-21T14:16:56.899Z,22.80
2018-09-21T14:19:25.653Z,23.40
2018-09-21T14:21:54.502Z,26.50
2018-09-21T14:24:23.670Z,30.30
2018-09-21T14:26:52.459Z,33.80
2018-09-21T14:29:24.884Z,36.80
2018-09-21T14:31:57.991Z,39.10
2018-09-21T14:34:30.240Z,40.30
2018-09-21T14:39:53.264Z,34.80
2018-09-21T14:42:23.305Z,37.60
2018-09-21T14:44:52.030Z,38.20
2018-09-21T14:47:35.784Z,38.20
2018-09-21T14:50:04.845Z,39.40
2018-09-21T14:52:37.232Z,41.10
2018-09-21T14:55:08.239Z,40.80
2018-09-21T14:57:36.979Z,40.40
2018-09-21T15:00:06.757Z,40.40
2018-09-21T15:02:35.589Z,40.90
2018-09-21T15:05:08.575Z,41.60
2018-09-21T15:07:37.321Z,43.20
2018-09-21T15:15:06.335Z,43.80
2018-09-21T15:17:34.968Z,43.70
2018-09-21T15:20:03.681Z,45.50
2018-09-21T15:22:32.346Z,45.70
2018-09-21T15:25:00.992Z,46.00
2018-09-21T15:27:29.698Z,46.90
2018-09-21T15:29:58.479Z,47.00
2018-09-21T15:32:27.112Z,45.70
2018-09-21T15:34:55.770Z,45.90
2018-09-21T15:37:24.819Z,46.00
2018-09-21T15:39:53.478Z,46.20
2018-09-21T15:42:22.153Z,45.80
2018-09-21T15:44:50.949Z,45.90
2018-09-21T15:47:19.595Z,46.00
2018-09-21T15:49:48.263Z,46.90
2018-09-21T15:52:16.931Z,47.40
2018-09-21T15:54:45.590Z,47.80
2018-09-21T15:57:14.258Z,48.40
2018-09-21T15:59:43.003Z,49.40
2018-09-21T16:02:11.655Z,48.90
2018-09-21T16:04:40.333Z,49.20
2018-09-21T16:07:09.107Z,49.70
2018-09-21T16:09:37.762Z,51.10
2018-09-21T16:12:06.430Z,77.10
2018-09-21T16:14:35.133Z,70.80
2018-09-21T16:17:03.749Z,65.60
2018-09-21T16:19:32.350Z,67.00
2018-09-21T16:22:02.506Z,66.40
2018-09-21T16:24:31.163Z,75.00
2018-09-21T16:26:59.900Z,80.30
2018-09-21T16:29:28.543Z,81.40
2018-09-21T16:31:57.180Z,82.80
2018-09-21T16:34:25.825Z,82.80
2018-09-21T16:36:54.483Z,83.10
2018-09-21T16:39:23.187Z,82.30
2018-09-21T16:41:51.938Z,81.50
2018-09-21T16:44:20.639Z,81.40
2018-09-21T16:46:49.275Z,81.10
2018-09-21T16:49:17.944Z,81.60
2018-09-21T16:51:46.650Z,81.20
2018-09-21T16:54:15.353Z,81.70
2018-09-21T16:56:43.980Z,82.40
2018-09-21T16:59:12.686Z,82.00
2018-09-21T17:01:41.318Z,81.30
2018-09-21T17:04:09.938Z,79.40
2018-09-21T17:06:38.570Z,79.30
2018-09-21T17:09:09.394Z,78.30
2018-09-21T17:11:38.043Z,77.60
2018-09-21T17:14:06.668Z,76.10
2018-09-21T17:16:35.301Z,74.70
2018-09-21T17:19:03.982Z,74.40
2018-09-21T17:21:32.592Z,74.30
2018-09-21T17:24:01.190Z,91.50
2018-09-21T17:26:29.878Z,99.90
2018-09-21T17:28:58.546Z,99.90
2018-09-21T17:31:27.232Z,99.90
2018-09-21T17:33:56.136Z,99.90
2018-09-21T17:36:24.791Z,99.90
2018-09-21T17:38:53.458Z,99.90
2018-09-21T17:41:23.640Z,99.90
2018-09-21T17:43:52.245Z,99.90
2018-09-21T17:46:20.893Z,99.90
2018-09-21T17:48:49.584Z,99.90
2018-09-21T17:51:18.489Z,99.90
2018-09-21T17:53:47.110Z,99.90
2018-09-21T17:56:15.871Z,99.90
2018-09-21T17:58:44.503Z,99.90
2018-09-21T18:01:13.178Z,99.90
2018-09-21T18:03:41.830Z,99.90
2018-09-21T18:06:10.482Z,99.90
2018-09-21T18:08:39.077Z,99.90
2018-09-21T18:11:07.746Z,99.90
2018-09-21T18:13:36.392Z,99.90
2018-09-21T18:16:05.227Z,99.90
2018-09-21T18:18:33.779Z,99.90
2018-09-21T18:21:02.399Z,99.90
2018-09-21T18:23:31.083Z,99.90
2018-09-21T18:25:59.801Z,99.90
2018-09-21T18:28:28.407Z,99.90
2018-09-21T18:30:57.589Z,99.90
2018-09-21T18:33:27.063Z,99.90
2018-09-21T18:35:55.715Z,99.90
2018-09-21T18:38:31.053Z,99.90
2018-09-21T18:40:59.696Z,99.90
2018-09-21T18:43:28.336Z,99.90
2018-09-21T18:45:57.066Z,99.90
2018-09-21T18:48:25.670Z,99.90
2018-09-21T18:50:54.338Z,99.90
2018-09-21T18:53:23.039Z,99.90
2018-09-21T18:55:51.659Z,99.90
2018-09-21T18:58:20.282Z,99.90
2018-09-21T19:00:48.953Z,99.90
2018-09-21T19:03:17.584Z,99.90
2018-09-21T19:05:46.284Z,99.90
2018-09-21T19:08:14.961Z,99.90
2018-09-21T19:10:43.565Z,99.90
2018-09-21T19:13:12.157Z,99.90
2018-09-21T19:15:40.839Z,99.90
2018-09-21T19:18:09.874Z,99.90
2018-09-21T19:20:39.026Z,99.90
2018-09-21T19:23:08.641Z,99.90
2018-09-21T19:25:37.405Z,99.90
2018-09-21T19:28:06.109Z,99.90
2018-09-21T19:30:34.787Z,99.90
2018-09-21T19:33:03.466Z,99.90
2018-09-21T19:35:32.078Z,99.90
2018-09-21T19:38:00.738Z,99.90
2018-09-21T19:40:29.428Z,99.90
2018-09-21T19:42:58.172Z,99.90
2018-09-21T19:45:26.906Z,99.90
2018-09-21T19:47:55.523Z,99.90
2018-09-21T19:50:24.220Z,99.90
2018-09-21T19:52:52.840Z,99.90
2018-09-21T19:55:21.578Z,99.90
2018-09-21T19:57:50.176Z,99.90
2018-09-21T20:00:18.806Z,99.90
2018-09-21T20:02:47.420Z,99.90
2018-09-21T20:05:16.050Z,99.90
2018-09-21T20:07:44.777Z,99.90
2018-09-21T20:10:13.405Z,99.90
2018-09-21T20:12:42.051Z,99.90
2018-09-21T20:15:10.700Z,99.90
2018-09-21T20:17:39.362Z,99.90
2018-09-21T20:20:08.005Z,99.90
2018-09-21T20:22:36.651Z,99.90
2018-09-21T20:25:05.374Z,99.90
2018-09-21T20:27:34.025Z,99.90
2018-09-21T20:30:08.201Z,99.90
2018-09-21T20:32:42.091Z,99.90
2018-09-21T20:35:10.776Z,99.90
2018-09-21T20:37:39.735Z,99.90
2018-09-21T20:40:08.423Z,99.90
2018-09-21T20:42:37.081Z,99.90
2018-09-21T20:45:06.661Z,99.90
2018-09-21T20:47:35.344Z,99.90
2018-09-21T20:50:04.263Z,99.90
2018-09-21T20:52:32.868Z,99.90
2018-09-21T20:55:01.558Z,99.90
2018-09-21T20:57:30.290Z,99.90
2018-09-21T20:59:58.933Z,99.90
2018-09-21T21:02:27.550Z,99.90
2018-09-21T21:04:56.314Z,99.90
2018-09-21T21:07:24.939Z,99.90
2018-09-21T21:09:53.555Z,99.90
2018-09-21T21:12:22.233Z,99.90
2018-09-21T21:14:50.933Z,99.90
2018-09-21T21:17:19.559Z,99.90
2018-09-21T21:19:48.254Z,99.90
2018-09-21T21:22:16.891Z,99.90
2018-09-21T21:24:45.536Z,99.90
2018-09-21T21:27:14.233Z,99.90
2018-09-21T21:29:42.850Z,99.90
2018-09-21T21:32:11.522Z,99.90
2018-09-21T21:34:40.202Z,99.90
2018-09-21T21:37:08.787Z,99.90
2018-09-21T21:39:37.440Z,99.90
2018-09-21T21:42:06.110Z,99.90
2018-09-21T21:44:34.766Z,99.90
2018-09-21T21:47:03.390Z,99.90
2018-09-21T21:49:32.099Z,99.90
2018-09-21T21:52:00.723Z,99.90
2018-09-21T21:54:29.365Z,99.90
2018-09-21T21:56:59.396Z,99.90
2018-09-21T21:59:27.993Z,99.90
2018-09-21T22:01:59.493Z,99.90
2018-09-21T22:04:29.247Z,99.90
2018-09-21T22:06:59.536Z,99.90
2018-09-21T22:09:28.150Z,99.90
2018-09-21T22:12:02.254Z,99.90
2018-09-21T22:14:30.884Z,99.90
2018-09-21T22:16:59.581Z,99.90
2018-09-21T22:19:28.210Z,99.90
2018-09-21T22:21:56.831Z,99.90
2018-09-21T22:24:25.538Z,99.90
2018-09-21T22:26:54.188Z,99.90
2018-09-21T22:29:22.778Z,99.90
2018-09-21T22:31:51.421Z,99.90
2018-09-21T22:34:20.172Z,99.90
2018-09-21T22:36:48.798Z,99.90
2018-09-21T22:39:17.393Z,99.90
2018-09-21T22:41:46.029Z,99.90
2018-09-21T22:44:14.630Z,99.90
2018-09-21T22:46:43.251Z,99.90
2018-09-21T22:49:16.739Z,99.90
2018-09-21T22:51:45.346Z,99.90
2018-09-21T22:54:13.937Z,99.90
2018-09-21T22:56:42.550Z,99.90
2018-09-21T22:59:11.232Z,99.90
2018-09-21T23:01:39.847Z,99.90
2018-09-21T23:04:08.499Z,99.90
2018-09-21T23:06:37.243Z,99.90
2018-09-21T23:09:09.036Z,99.90
2018-09-21T23:11:37.613Z,99.90
2018-09-21T23:14:06.250Z,99.90
2018-09-21T23:16:34.896Z,99.90
2018-09-21T23:19:03.545Z,99.90
2018-09-21T23:21:32.134Z,99.90
2018-09-21T23:24:00.968Z,99.90
2018-09-21T23:26:29.569Z,99.90
2018-09-21T23:28:58.227Z,99.90
2018-09-21T23:31:26.893Z,99.90
2018-09-21T23:33:55.461Z,99.90
2018-09-21T23:36:24.104Z,99.90
2018-09-21T23:38:52.721Z,99.90
2018-09-21T23:41:21.303Z,99.90
2018-09-21T23:43:49.869Z,99.90
2018-09-21T23:46:18.502Z,99.90
2018-09-21T23:48:47.059Z,99.90
2018-09-21T23:51:15.681Z,99.90
2018-09-21T23:53:44.295Z,99.90
2018-09-21T23:56:12.877Z,99.90
2018-09-21T23:58:41.459Z,99.90
